sensor_id;sensor_type;location;lat;lon;timestamp;temperature;humidity
33863;DHT22;20158;51.436;-2.742;2023-09-19T00:01:57;17.90;66.20
33863;DHT22;20158;51.436;-2.742;2023-09-19T00:04:23;17.90;66.20
33863;DHT22;20158;51.436;-2.742;2023-09-19T00:06:54;17.90;66.40
33863;DHT22;20158;51.436;-2.742;2023-09-19T00:09:20;17.80;66.20
33863;DHT22;20158;51.436;-2.742;2023-09-19T00:11:46;17.80;66.30
33863;DHT22;20158;51.436;-2.742;2023-09-19T00:14:15;17.80;66.50
33863;DHT22;20158;51.436;-2.742;2023-09-19T00:16:41;17.80;66.60
33863;DHT22;20158;51.436;-2.742;2023-09-19T00:19:07;17.70;66.50
33863;DHT22;20158;51.436;-2.742;2023-09-19T00:21:33;17.70;66.60
33863;DHT22;20158;51.436;-2.742;2023-09-19T00:24:00;17.70;66.70
33863;DHT22;20158;51.436;-2.742;2023-09-19T00:26:29;17.70;66.90
33863;DHT22;20158;51.436;-2.742;2023-09-19T00:28:56;17.60;66.90
33863;DHT22;20158;51.436;-2.742;2023-09-19T00:31:22;17.60;67.00
33863;DHT22;20158;51.436;-2.742;2023-09-19T00:33:49;17.60;67.20
33863;DHT22;20158;51.436;-2.742;2023-09-19T00:36:15;17.50;67.20
33863;DHT22;20158;51.436;-2.742;2023-09-19T00:38:41;17.50;67.30
33863;DHT22;20158;51.436;-2.742;2023-09-19T00:41:10;17.60;67.70
33863;DHT22;20158;51.436;-2.742;2023-09-19T00:43:36;17.50;67.60
33863;DHT22;20158;51.436;-2.742;2023-09-19T00:46:02;17.50;67.80
33863;DHT22;20158;51.436;-2.742;2023-09-19T00:48:30;17.40;67.70
33863;DHT22;20158;51.436;-2.742;2023-09-19T00:50:59;17.40;68.30
33863;DHT22;20158;51.436;-2.742;2023-09-19T00:53:27;17.40;68.00
33863;DHT22;20158;51.436;-2.742;2023-09-19T00:55:54;17.30;68.00
33863;DHT22;20158;51.436;-2.742;2023-09-19T00:58:21;17.30;68.10
33863;DHT22;20158;51.436;-2.742;2023-09-19T01:00:48;17.30;68.20
33863;DHT22;20158;51.436;-2.742;2023-09-19T01:03:18;17.30;68.30
33863;DHT22;20158;51.436;-2.742;2023-09-19T01:05:44;17.30;68.40
33863;DHT22;20158;51.436;-2.742;2023-09-19T01:08:11;17.30;68.60
33863;DHT22;20158;51.436;-2.742;2023-09-19T01:10:46;17.20;68.50
33863;DHT22;20158;51.436;-2.742;2023-09-19T01:13:37;17.20;68.70
33863;DHT22;20158;51.436;-2.742;2023-09-19T01:16:19;17.20;68.70
33863;DHT22;20158;51.436;-2.742;2023-09-19T01:19:02;17.20;68.80
33863;DHT22;20158;51.436;-2.742;2023-09-19T01:21:44;17.20;68.90
33863;DHT22;20158;51.436;-2.742;2023-09-19T01:29:49;17.10;69.00
33863;DHT22;20158;51.436;-2.742;2023-09-19T01:32:20;17.10;69.00
33863;DHT22;20158;51.436;-2.742;2023-09-19T01:34:55;17.10;69.10
33863;DHT22;20158;51.436;-2.742;2023-09-19T01:37:35;17.10;69.30
33863;DHT22;20158;51.436;-2.742;2023-09-19T01:40:07;17.10;69.40
33863;DHT22;20158;51.436;-2.742;2023-09-19T01:42:59;17.00;69.20
33863;DHT22;20158;51.436;-2.742;2023-09-19T01:51:02;17.00;69.50
33863;DHT22;20158;51.436;-2.742;2023-09-19T01:53:55;16.90;69.50
33863;DHT22;20158;51.436;-2.742;2023-09-19T01:56:28;16.90;69.60
33863;DHT22;20158;51.436;-2.742;2023-09-19T01:59:04;16.90;69.70
33863;DHT22;20158;51.436;-2.742;2023-09-19T02:01:32;16.90;69.70
33863;DHT22;20158;51.436;-2.742;2023-09-19T02:03:58;16.90;69.70
33863;DHT22;20158;51.436;-2.742;2023-09-19T02:06:24;16.90;69.80
33863;DHT22;20158;51.436;-2.742;2023-09-19T02:08:51;16.90;69.90
33863;DHT22;20158;51.436;-2.742;2023-09-19T02:11:17;16.90;70.00
33863;DHT22;20158;51.436;-2.742;2023-09-19T02:13:43;16.80;69.80
33863;DHT22;20158;51.436;-2.742;2023-09-19T02:16:09;16.80;70.40
33863;DHT22;20158;51.436;-2.742;2023-09-19T02:18:36;16.80;70.00
33863;DHT22;20158;51.436;-2.742;2023-09-19T02:21:03;16.80;70.00
33863;DHT22;20158;51.436;-2.742;2023-09-19T02:23:30;16.80;70.10
33863;DHT22;20158;51.436;-2.742;2023-09-19T02:25:56;16.80;70.10
33863;DHT22;20158;51.436;-2.742;2023-09-19T02:28:31;16.80;70.20
33863;DHT22;20158;51.436;-2.742;2023-09-19T02:30:58;16.80;70.30
33863;DHT22;20158;51.436;-2.742;2023-09-19T02:33:24;16.80;70.30
33863;DHT22;20158;51.436;-2.742;2023-09-19T02:35:57;16.80;70.40
33863;DHT22;20158;51.436;-2.742;2023-09-19T02:38:27;16.80;70.50
33863;DHT22;20158;51.436;-2.742;2023-09-19T02:40:54;16.70;70.30
33863;DHT22;20158;51.436;-2.742;2023-09-19T02:43:21;16.80;70.60
33863;DHT22;20158;51.436;-2.742;2023-09-19T02:45:48;16.70;71.10
33863;DHT22;20158;51.436;-2.742;2023-09-19T02:48:19;16.70;70.60
33863;DHT22;20158;51.436;-2.742;2023-09-19T02:50:49;16.80;70.80
33863;DHT22;20158;51.436;-2.742;2023-09-19T02:53:15;16.70;70.70
33863;DHT22;20158;51.436;-2.742;2023-09-19T02:55:47;16.70;70.80
33863;DHT22;20158;51.436;-2.742;2023-09-19T02:58:14;16.70;70.80
33863;DHT22;20158;51.436;-2.742;2023-09-19T03:00:51;16.70;70.90
33863;DHT22;20158;51.436;-2.742;2023-09-19T03:03:18;16.70;71.00
33863;DHT22;20158;51.436;-2.742;2023-09-19T03:05:44;16.70;71.00
33863;DHT22;20158;51.436;-2.742;2023-09-19T03:08:14;16.70;71.10
33863;DHT22;20158;51.436;-2.742;2023-09-19T03:10:46;16.70;71.10
33863;DHT22;20158;51.436;-2.742;2023-09-19T03:13:14;16.70;71.20
33863;DHT22;20158;51.436;-2.742;2023-09-19T03:15:42;16.70;71.20
33863;DHT22;20158;51.436;-2.742;2023-09-19T03:18:11;16.70;71.30
33863;DHT22;20158;51.436;-2.742;2023-09-19T03:20:37;16.70;71.90
33863;DHT22;20158;51.436;-2.742;2023-09-19T03:23:10;16.70;71.40
33863;DHT22;20158;51.436;-2.742;2023-09-19T03:25:36;16.70;71.40
33863;DHT22;20158;51.436;-2.742;2023-09-19T03:28:03;16.80;71.60
33863;DHT22;20158;51.436;-2.742;2023-09-19T03:30:32;16.70;71.50
33863;DHT22;20158;51.436;-2.742;2023-09-19T03:33:00;16.80;71.60
33863;DHT22;20158;51.436;-2.742;2023-09-19T03:35:26;16.70;71.50
33863;DHT22;20158;51.436;-2.742;2023-09-19T03:37:52;16.80;71.80
33863;DHT22;20158;51.436;-2.742;2023-09-19T03:40:19;16.80;71.70
33863;DHT22;20158;51.436;-2.742;2023-09-19T03:42:47;16.80;71.80
33863;DHT22;20158;51.436;-2.742;2023-09-19T03:45:14;16.80;71.80
33863;DHT22;20158;51.436;-2.742;2023-09-19T03:47:44;16.80;71.90
33863;DHT22;20158;51.436;-2.742;2023-09-19T03:50:13;16.80;71.90
33863;DHT22;20158;51.436;-2.742;2023-09-19T03:52:46;16.80;71.90
33863;DHT22;20158;51.436;-2.742;2023-09-19T03:55:12;16.80;72.00
33863;DHT22;20158;51.436;-2.742;2023-09-19T03:57:48;16.80;72.00
33863;DHT22;20158;51.436;-2.742;2023-09-19T04:00:14;16.80;72.00
33863;DHT22;20158;51.436;-2.742;2023-09-19T04:02:44;16.80;72.00
33863;DHT22;20158;51.436;-2.742;2023-09-19T04:05:11;16.80;72.10
33863;DHT22;20158;51.436;-2.742;2023-09-19T04:07:44;16.70;71.90
33863;DHT22;20158;51.436;-2.742;2023-09-19T04:10:10;16.80;72.10
33863;DHT22;20158;51.436;-2.742;2023-09-19T04:12:37;16.80;72.10
33863;DHT22;20158;51.436;-2.742;2023-09-19T04:15:07;16.80;72.10
33863;DHT22;20158;51.436;-2.742;2023-09-19T04:17:34;16.80;72.20
33863;DHT22;20158;51.436;-2.742;2023-09-19T04:20:00;16.80;72.20
33863;DHT22;20158;51.436;-2.742;2023-09-19T04:22:26;16.80;72.20
33863;DHT22;20158;51.436;-2.742;2023-09-19T04:24:52;16.80;72.20
33863;DHT22;20158;51.436;-2.742;2023-09-19T04:27:18;16.80;72.30
33863;DHT22;20158;51.436;-2.742;2023-09-19T04:29:44;16.80;72.30
33863;DHT22;20158;51.436;-2.742;2023-09-19T04:32:10;16.80;72.30
33863;DHT22;20158;51.436;-2.742;2023-09-19T04:34:36;16.80;72.30
33863;DHT22;20158;51.436;-2.742;2023-09-19T04:37:05;16.80;72.40
33863;DHT22;20158;51.436;-2.742;2023-09-19T04:39:31;16.80;72.40
33863;DHT22;20158;51.436;-2.742;2023-09-19T04:41:57;16.80;72.50
33863;DHT22;20158;51.436;-2.742;2023-09-19T04:44:24;16.80;72.50
33863;DHT22;20158;51.436;-2.742;2023-09-19T04:46:50;16.80;72.50
33863;DHT22;20158;51.436;-2.742;2023-09-19T04:49:16;16.80;72.50
33863;DHT22;20158;51.436;-2.742;2023-09-19T04:51:44;16.80;72.60
33863;DHT22;20158;51.436;-2.742;2023-09-19T04:54:12;16.80;72.60
33863;DHT22;20158;51.436;-2.742;2023-09-19T04:56:38;16.80;72.60
33863;DHT22;20158;51.436;-2.742;2023-09-19T04:59:06;16.80;72.70
33863;DHT22;20158;51.436;-2.742;2023-09-19T05:01:32;16.80;72.70
33863;DHT22;20158;51.436;-2.742;2023-09-19T05:03:58;16.80;72.70
33863;DHT22;20158;51.436;-2.742;2023-09-19T05:06:24;16.80;72.80
33863;DHT22;20158;51.436;-2.742;2023-09-19T05:08:52;16.80;72.80
33863;DHT22;20158;51.436;-2.742;2023-09-19T05:11:21;16.70;72.70
33863;DHT22;20158;51.436;-2.742;2023-09-19T05:13:49;16.70;72.70
33863;DHT22;20158;51.436;-2.742;2023-09-19T05:16:21;16.80;72.90
33863;DHT22;20158;51.436;-2.742;2023-09-19T05:18:48;16.70;72.80
33863;DHT22;20158;51.436;-2.742;2023-09-19T05:21:15;16.70;72.80
33863;DHT22;20158;51.436;-2.742;2023-09-19T05:23:41;16.80;73.00
33863;DHT22;20158;51.436;-2.742;2023-09-19T05:26:07;16.70;72.90
33863;DHT22;20158;51.436;-2.742;2023-09-19T05:28:33;16.80;73.20
33863;DHT22;20158;51.436;-2.742;2023-09-19T05:31:03;16.80;73.20
33863;DHT22;20158;51.436;-2.742;2023-09-19T05:33:29;16.70;73.10
33863;DHT22;20158;51.436;-2.742;2023-09-19T05:35:56;16.80;73.30
33863;DHT22;20158;51.436;-2.742;2023-09-19T05:38:22;16.80;73.30
33863;DHT22;20158;51.436;-2.742;2023-09-19T05:40:49;16.70;73.20
33863;DHT22;20158;51.436;-2.742;2023-09-19T05:43:15;16.80;73.30
33863;DHT22;20158;51.436;-2.742;2023-09-19T05:45:41;16.80;73.40
33863;DHT22;20158;51.436;-2.742;2023-09-19T05:48:14;16.80;73.40
33863;DHT22;20158;51.436;-2.742;2023-09-19T05:50:42;16.80;73.50
33863;DHT22;20158;51.436;-2.742;2023-09-19T05:53:08;16.80;73.50
33863;DHT22;20158;51.436;-2.742;2023-09-19T05:55:37;16.90;73.80
33863;DHT22;20158;51.436;-2.742;2023-09-19T05:58:03;16.80;73.70
33863;DHT22;20158;51.436;-2.742;2023-09-19T06:00:30;16.90;73.90
33863;DHT22;20158;51.436;-2.742;2023-09-19T06:02:58;16.80;73.90
33863;DHT22;20158;51.436;-2.742;2023-09-19T06:05:26;16.80;73.90
33863;DHT22;20158;51.436;-2.742;2023-09-19T06:07:58;16.90;74.20
33863;DHT22;20158;51.436;-2.742;2023-09-19T06:10:26;16.80;74.40
33863;DHT22;20158;51.436;-2.742;2023-09-19T06:12:54;16.90;75.00
33863;DHT22;20158;51.436;-2.742;2023-09-19T06:15:21;17.00;75.50
33863;DHT22;20158;51.436;-2.742;2023-09-19T06:17:54;17.10;75.90
33863;DHT22;20158;51.436;-2.742;2023-09-19T06:20:21;17.10;76.00
33863;DHT22;20158;51.436;-2.742;2023-09-19T06:22:49;17.20;76.20
33863;DHT22;20158;51.436;-2.742;2023-09-19T06:25:16;17.20;76.30
33863;DHT22;20158;51.436;-2.742;2023-09-19T06:27:49;17.30;76.50
33863;DHT22;20158;51.436;-2.742;2023-09-19T06:30:18;17.30;76.40
33863;DHT22;20158;51.436;-2.742;2023-09-19T06:32:46;17.40;76.40
33863;DHT22;20158;51.436;-2.742;2023-09-19T06:35:14;17.40;76.40
33863;DHT22;20158;51.436;-2.742;2023-09-19T06:37:40;17.30;76.70
33863;DHT22;20158;51.436;-2.742;2023-09-19T06:40:11;17.40;76.30
33863;DHT22;20158;51.436;-2.742;2023-09-19T06:43:06;17.30;76.00
33863;DHT22;20158;51.436;-2.742;2023-09-19T06:45:32;17.30;76.10
33863;DHT22;20158;51.436;-2.742;2023-09-19T06:47:58;17.40;76.10
33863;DHT22;20158;51.436;-2.742;2023-09-19T06:50:26;17.30;76.00
33863;DHT22;20158;51.436;-2.742;2023-09-19T06:52:54;17.30;76.00
33863;DHT22;20158;51.436;-2.742;2023-09-19T06:55:22;17.30;76.00
33863;DHT22;20158;51.436;-2.742;2023-09-19T06:57:51;17.30;75.90
33863;DHT22;20158;51.436;-2.742;2023-09-19T07:00:20;17.30;75.90
33863;DHT22;20158;51.436;-2.742;2023-09-19T07:03:05;17.20;75.80
33863;DHT22;20158;51.436;-2.742;2023-09-19T07:05:36;17.20;76.40
33863;DHT22;20158;51.436;-2.742;2023-09-19T07:08:03;17.20;75.80
33863;DHT22;20158;51.436;-2.742;2023-09-19T07:10:30;17.30;76.10
33863;DHT22;20158;51.436;-2.742;2023-09-19T07:13:01;17.20;75.90
33863;DHT22;20158;51.436;-2.742;2023-09-19T07:15:28;17.30;76.10
33863;DHT22;20158;51.436;-2.742;2023-09-19T07:17:57;17.30;76.00
33863;DHT22;20158;51.436;-2.742;2023-09-19T07:20:24;17.30;76.00
33863;DHT22;20158;51.436;-2.742;2023-09-19T07:22:55;17.30;75.90
33863;DHT22;20158;51.436;-2.742;2023-09-19T07:25:21;17.30;75.90
33863;DHT22;20158;51.436;-2.742;2023-09-19T07:27:47;17.40;76.00
33863;DHT22;20158;51.436;-2.742;2023-09-19T07:30:13;17.40;76.00
33863;DHT22;20158;51.436;-2.742;2023-09-19T07:32:42;17.40;76.00
33863;DHT22;20158;51.436;-2.742;2023-09-19T07:35:08;17.40;75.90
33863;DHT22;20158;51.436;-2.742;2023-09-19T07:37:34;17.50;76.10
33863;DHT22;20158;51.436;-2.742;2023-09-19T07:40:02;17.40;76.20
33863;DHT22;20158;51.436;-2.742;2023-09-19T07:42:33;17.50;76.50
33863;DHT22;20158;51.436;-2.742;2023-09-19T07:45:01;17.60;76.70
33863;DHT22;20158;51.436;-2.742;2023-09-19T07:47:27;17.70;76.90
33863;DHT22;20158;51.436;-2.742;2023-09-19T07:50:00;17.70;76.70
33863;DHT22;20158;51.436;-2.742;2023-09-19T07:52:28;17.80;76.70
33863;DHT22;20158;51.436;-2.742;2023-09-19T07:54:55;17.90;76.80
33863;DHT22;20158;51.436;-2.742;2023-09-19T07:57:23;17.90;76.80
33863;DHT22;20158;51.436;-2.742;2023-09-19T07:59:48;18.00;76.90
33863;DHT22;20158;51.436;-2.742;2023-09-19T08:02:15;18.00;76.80
33863;DHT22;20158;51.436;-2.742;2023-09-19T08:04:45;18.10;76.80
33863;DHT22;20158;51.436;-2.742;2023-09-19T08:07:15;18.10;76.70
33863;DHT22;20158;51.436;-2.742;2023-09-19T08:09:41;18.20;76.70
33863;DHT22;20158;51.436;-2.742;2023-09-19T08:12:07;18.30;76.70
33863;DHT22;20158;51.436;-2.742;2023-09-19T08:14:36;18.30;77.10
33863;DHT22;20158;51.436;-2.742;2023-09-19T08:17:03;18.30;76.40
33863;DHT22;20158;51.436;-2.742;2023-09-19T08:19:34;18.40;76.50
33863;DHT22;20158;51.436;-2.742;2023-09-19T08:22:00;18.50;76.40
33863;DHT22;20158;51.436;-2.742;2023-09-19T08:24:28;18.50;76.30
33863;DHT22;20158;51.436;-2.742;2023-09-19T08:26:57;18.50;76.20
33863;DHT22;20158;51.436;-2.742;2023-09-19T08:29:24;18.60;76.40
33863;DHT22;20158;51.436;-2.742;2023-09-19T08:31:57;18.60;76.40
33863;DHT22;20158;51.436;-2.742;2023-09-19T08:34:26;18.70;76.70
33863;DHT22;20158;51.436;-2.742;2023-09-19T08:36:54;18.70;76.50
33863;DHT22;20158;51.436;-2.742;2023-09-19T08:39:24;18.70;76.40
33863;DHT22;20158;51.436;-2.742;2023-09-19T08:41:56;18.80;76.50
33863;DHT22;20158;51.436;-2.742;2023-09-19T08:44:26;18.80;76.40
33863;DHT22;20158;51.436;-2.742;2023-09-19T08:46:56;18.80;76.30
33863;DHT22;20158;51.436;-2.742;2023-09-19T08:49:38;18.80;76.30
33863;DHT22;20158;51.436;-2.742;2023-09-19T08:52:24;18.80;76.20
33863;DHT22;20158;51.436;-2.742;2023-09-19T08:54:52;18.80;76.20
33863;DHT22;20158;51.436;-2.742;2023-09-19T08:57:19;18.90;76.30
33863;DHT22;20158;51.436;-2.742;2023-09-19T08:59:48;18.90;76.00
33863;DHT22;20158;51.436;-2.742;2023-09-19T09:02:18;19.10;76.70
33863;DHT22;20158;51.436;-2.742;2023-09-19T09:04:45;19.10;75.90
33863;DHT22;20158;51.436;-2.742;2023-09-19T09:07:13;19.20;75.90
33863;DHT22;20158;51.436;-2.742;2023-09-19T09:09:40;19.20;75.80
33863;DHT22;20158;51.436;-2.742;2023-09-19T09:12:12;19.30;75.80
33863;DHT22;20158;51.436;-2.742;2023-09-19T09:14:48;19.30;75.70
33863;DHT22;20158;51.436;-2.742;2023-09-19T09:17:16;19.40;75.60
33863;DHT22;20158;51.436;-2.742;2023-09-19T09:19:48;19.50;75.70
33863;DHT22;20158;51.436;-2.742;2023-09-19T09:22:14;19.50;75.50
33863;DHT22;20158;51.436;-2.742;2023-09-19T09:24:56;19.60;75.50
33863;DHT22;20158;51.436;-2.742;2023-09-19T09:27:31;19.70;75.40
33863;DHT22;20158;51.436;-2.742;2023-09-19T09:29:58;19.90;75.40
33863;DHT22;20158;51.436;-2.742;2023-09-19T09:32:29;19.90;75.00
33863;DHT22;20158;51.436;-2.742;2023-09-19T09:34:56;20.00;74.90
33863;DHT22;20158;51.436;-2.742;2023-09-19T09:37:24;20.10;75.00
33863;DHT22;20158;51.436;-2.742;2023-09-19T09:39:56;20.20;75.00
33863;DHT22;20158;51.436;-2.742;2023-09-19T09:42:31;20.40;75.00
33863;DHT22;20158;51.436;-2.742;2023-09-19T09:45:24;20.50;74.60
33863;DHT22;20158;51.436;-2.742;2023-09-19T09:48:10;20.70;74.50
33863;DHT22;20158;51.436;-2.742;2023-09-19T09:50:48;20.80;74.40
33863;DHT22;20158;51.436;-2.742;2023-09-19T09:53:24;20.80;74.10
33863;DHT22;20158;51.436;-2.742;2023-09-19T09:56:04;20.80;73.90
33863;DHT22;20158;51.436;-2.742;2023-09-19T09:58:34;20.80;73.90
33863;DHT22;20158;51.436;-2.742;2023-09-19T10:01:04;20.80;73.90
33863;DHT22;20158;51.436;-2.742;2023-09-19T10:03:41;20.80;73.90
33863;DHT22;20158;51.436;-2.742;2023-09-19T10:06:12;20.70;73.70
33863;DHT22;20158;51.436;-2.742;2023-09-19T10:11:31;20.70;73.80
33863;DHT22;20158;51.436;-2.742;2023-09-19T10:14:00;20.80;74.00
33863;DHT22;20158;51.436;-2.742;2023-09-19T10:16:32;20.80;73.90
33863;DHT22;20158;51.436;-2.742;2023-09-19T10:19:05;20.80;73.80
33863;DHT22;20158;51.436;-2.742;2023-09-19T10:21:35;20.80;73.70
33863;DHT22;20158;51.436;-2.742;2023-09-19T10:24:03;20.90;73.70
33863;DHT22;20158;51.436;-2.742;2023-09-19T10:26:35;20.90;73.90
33863;DHT22;20158;51.436;-2.742;2023-09-19T10:29:07;20.90;73.60
33863;DHT22;20158;51.436;-2.742;2023-09-19T10:31:36;20.90;73.60
33863;DHT22;20158;51.436;-2.742;2023-09-19T10:34:06;20.90;73.60
33863;DHT22;20158;51.436;-2.742;2023-09-19T10:36:36;21.00;74.20
33863;DHT22;20158;51.436;-2.742;2023-09-19T10:39:04;21.00;73.70
33863;DHT22;20158;51.436;-2.742;2023-09-19T10:41:38;21.00;73.60
33863;DHT22;20158;51.436;-2.742;2023-09-19T10:44:05;21.00;73.50
33863;DHT22;20158;51.436;-2.742;2023-09-19T10:46:34;21.10;73.70
33863;DHT22;20158;51.436;-2.742;2023-09-19T10:49:02;21.10;73.60
33863;DHT22;20158;51.436;-2.742;2023-09-19T10:51:32;21.10;73.60
33863;DHT22;20158;51.436;-2.742;2023-09-19T10:54:13;21.10;73.70
33863;DHT22;20158;51.436;-2.742;2023-09-19T10:56:49;21.10;73.50
33863;DHT22;20158;51.436;-2.742;2023-09-19T10:59:18;21.20;73.60
33863;DHT22;20158;51.436;-2.742;2023-09-19T11:01:57;21.30;73.70
33863;DHT22;20158;51.436;-2.742;2023-09-19T11:04:30;21.30;73.40
33863;DHT22;20158;51.436;-2.742;2023-09-19T11:07:11;21.30;73.40
33863;DHT22;20158;51.436;-2.742;2023-09-19T11:09:54;21.30;73.30
33863;DHT22;20158;51.436;-2.742;2023-09-19T11:14:57;21.30;73.30
33863;DHT22;20158;51.436;-2.742;2023-09-19T11:17:31;21.30;73.30
33863;DHT22;20158;51.436;-2.742;2023-09-19T11:30:32;21.20;73.60
33863;DHT22;20158;51.436;-2.742;2023-09-19T11:33:30;21.20;73.60
33863;DHT22;20158;51.436;-2.742;2023-09-19T11:49:24;21.30;73.90
33863;DHT22;20158;51.436;-2.742;2023-09-19T11:51:52;21.30;73.90
33863;DHT22;20158;51.436;-2.742;2023-09-19T11:54:18;21.20;73.90
33863;DHT22;20158;51.436;-2.742;2023-09-19T11:56:49;21.20;74.00
33863;DHT22;20158;51.436;-2.742;2023-09-19T11:59:31;21.20;74.10
33863;DHT22;20158;51.436;-2.742;2023-09-19T12:02:04;21.20;74.20
33863;DHT22;20158;51.436;-2.742;2023-09-19T12:04:38;21.20;74.10
33863;DHT22;20158;51.436;-2.742;2023-09-19T12:07:08;21.30;74.20
33863;DHT22;20158;51.436;-2.742;2023-09-19T12:09:42;21.30;74.10
33863;DHT22;20158;51.436;-2.742;2023-09-19T12:12:28;21.30;74.00
33863;DHT22;20158;51.436;-2.742;2023-09-19T12:14:55;21.30;74.00
33863;DHT22;20158;51.436;-2.742;2023-09-19T12:17:23;21.30;74.00
33863;DHT22;20158;51.436;-2.742;2023-09-19T12:19:51;21.30;74.10
33863;DHT22;20158;51.436;-2.742;2023-09-19T12:22:17;21.30;74.10
33863;DHT22;20158;51.436;-2.742;2023-09-19T12:24:45;21.30;74.20
33863;DHT22;20158;51.436;-2.742;2023-09-19T12:27:11;21.30;74.10
33863;DHT22;20158;51.436;-2.742;2023-09-19T12:29:48;21.40;74.30
33863;DHT22;20158;51.436;-2.742;2023-09-19T12:32:15;21.40;74.30
33863;DHT22;20158;51.436;-2.742;2023-09-19T12:34:53;21.50;74.50
33863;DHT22;20158;51.436;-2.742;2023-09-19T12:37:20;21.60;74.30
33863;DHT22;20158;51.436;-2.742;2023-09-19T12:39:49;21.60;74.10
33863;DHT22;20158;51.436;-2.742;2023-09-19T12:42:24;21.70;74.10
33863;DHT22;20158;51.436;-2.742;2023-09-19T12:44:54;21.70;74.10
33863;DHT22;20158;51.436;-2.742;2023-09-19T12:47:27;21.70;74.10
33863;DHT22;20158;51.436;-2.742;2023-09-19T12:50:12;21.70;74.00
33863;DHT22;20158;51.436;-2.742;2023-09-19T12:52:49;21.80;74.20
33863;DHT22;20158;51.436;-2.742;2023-09-19T12:55:29;21.80;74.10
33863;DHT22;20158;51.436;-2.742;2023-09-19T13:00:37;21.90;74.10
33863;DHT22;20158;51.436;-2.742;2023-09-19T13:03:39;22.00;74.10
33863;DHT22;20158;51.436;-2.742;2023-09-19T13:06:06;22.00;73.90
33863;DHT22;20158;51.436;-2.742;2023-09-19T13:08:34;22.10;74.00
33863;DHT22;20158;51.436;-2.742;2023-09-19T13:11:13;22.10;74.30
33863;DHT22;20158;51.436;-2.742;2023-09-19T13:16:07;22.30;73.80
33863;DHT22;20158;51.436;-2.742;2023-09-19T13:18:48;22.40;73.70
33863;DHT22;20158;51.436;-2.742;2023-09-19T13:21:27;22.50;73.60
33863;DHT22;20158;51.436;-2.742;2023-09-19T13:23:55;22.50;73.40
33863;DHT22;20158;51.436;-2.742;2023-09-19T13:26:25;22.60;73.30
33863;DHT22;20158;51.436;-2.742;2023-09-19T13:28:51;22.60;73.20
33863;DHT22;20158;51.436;-2.742;2023-09-19T13:31:20;22.60;73.00
33863;DHT22;20158;51.436;-2.742;2023-09-19T13:33:48;22.60;73.00
33863;DHT22;20158;51.436;-2.742;2023-09-19T13:36:14;22.60;72.90
33863;DHT22;20158;51.436;-2.742;2023-09-19T13:38:43;22.60;72.90
33863;DHT22;20158;51.436;-2.742;2023-09-19T13:41:10;22.60;72.80
33863;DHT22;20158;51.436;-2.742;2023-09-19T13:43:37;22.70;72.90
33863;DHT22;20158;51.436;-2.742;2023-09-19T13:46:06;22.70;72.80
33863;DHT22;20158;51.436;-2.742;2023-09-19T13:48:41;22.70;72.80
33863;DHT22;20158;51.436;-2.742;2023-09-19T13:51:07;22.70;72.70
33863;DHT22;20158;51.436;-2.742;2023-09-19T13:53:32;22.70;72.70
33863;DHT22;20158;51.436;-2.742;2023-09-19T13:55:59;22.70;72.60
33863;DHT22;20158;51.436;-2.742;2023-09-19T13:58:25;22.70;72.60
33863;DHT22;20158;51.436;-2.742;2023-09-19T14:00:57;22.60;72.40
33863;DHT22;20158;51.436;-2.742;2023-09-19T14:03:24;22.60;72.40
33863;DHT22;20158;51.436;-2.742;2023-09-19T14:05:50;22.60;72.40
33863;DHT22;20158;51.436;-2.742;2023-09-19T14:08:17;22.60;72.40
33863;DHT22;20158;51.436;-2.742;2023-09-19T14:10:43;22.70;72.40
33863;DHT22;20158;51.436;-2.742;2023-09-19T14:13:08;22.70;72.40
33863;DHT22;20158;51.436;-2.742;2023-09-19T14:15:37;22.70;72.30
33863;DHT22;20158;51.436;-2.742;2023-09-19T14:18:04;22.60;72.10
33863;DHT22;20158;51.436;-2.742;2023-09-19T14:20:30;22.70;72.30
33863;DHT22;20158;51.436;-2.742;2023-09-19T14:22:57;22.70;72.20
33863;DHT22;20158;51.436;-2.742;2023-09-19T14:25:30;22.70;72.20
33863;DHT22;20158;51.436;-2.742;2023-09-19T14:27:56;22.70;72.20
33863;DHT22;20158;51.436;-2.742;2023-09-19T14:30:22;22.70;72.20
33863;DHT22;20158;51.436;-2.742;2023-09-19T14:32:49;22.70;72.10
33863;DHT22;20158;51.436;-2.742;2023-09-19T14:35:15;22.70;71.90
33863;DHT22;20158;51.436;-2.742;2023-09-19T14:37:42;22.80;72.00
33863;DHT22;20158;51.436;-2.742;2023-09-19T14:40:09;22.90;72.00
33863;DHT22;20158;51.436;-2.742;2023-09-19T14:42:38;23.00;72.10
33863;DHT22;20158;51.436;-2.742;2023-09-19T14:45:09;23.00;71.90
33863;DHT22;20158;51.436;-2.742;2023-09-19T14:47:40;23.10;71.90
33863;DHT22;20158;51.436;-2.742;2023-09-19T14:50:06;23.00;71.70
33863;DHT22;20158;51.436;-2.742;2023-09-19T14:52:33;23.00;71.80
33863;DHT22;20158;51.436;-2.742;2023-09-19T14:55:00;23.00;71.90
33863;DHT22;20158;51.436;-2.742;2023-09-19T14:57:27;23.00;72.00
33863;DHT22;20158;51.436;-2.742;2023-09-19T14:59:53;23.10;72.20
33863;DHT22;20158;51.436;-2.742;2023-09-19T15:02:20;23.20;72.20
33863;DHT22;20158;51.436;-2.742;2023-09-19T15:04:46;23.30;72.10
33863;DHT22;20158;51.436;-2.742;2023-09-19T15:07:15;23.50;72.10
33863;DHT22;20158;51.436;-2.742;2023-09-19T15:09:42;23.60;71.90
33863;DHT22;20158;51.436;-2.742;2023-09-19T15:12:09;23.60;71.70
33863;DHT22;20158;51.436;-2.742;2023-09-19T15:14:41;23.70;71.80
33863;DHT22;20158;51.436;-2.742;2023-09-19T15:17:07;23.70;71.70
33863;DHT22;20158;51.436;-2.742;2023-09-19T15:19:34;23.70;71.60
33863;DHT22;20158;51.436;-2.742;2023-09-19T15:22:00;23.70;71.60
33863;DHT22;20158;51.436;-2.742;2023-09-19T15:24:27;23.60;71.40
33863;DHT22;20158;51.436;-2.742;2023-09-19T15:26:53;23.60;71.40
33863;DHT22;20158;51.436;-2.742;2023-09-19T15:29:21;23.50;71.30
33863;DHT22;20158;51.436;-2.742;2023-09-19T15:31:48;23.40;71.20
33863;DHT22;20158;51.436;-2.742;2023-09-19T15:34:14;23.30;71.20
33863;DHT22;20158;51.436;-2.742;2023-09-19T15:36:41;23.20;71.30
33863;DHT22;20158;51.436;-2.742;2023-09-19T15:39:11;23.10;71.20
33863;DHT22;20158;51.436;-2.742;2023-09-19T15:41:41;23.00;71.30
33863;DHT22;20158;51.436;-2.742;2023-09-19T15:44:18;23.00;71.40
33863;DHT22;20158;51.436;-2.742;2023-09-19T15:46:47;22.80;71.30
33863;DHT22;20158;51.436;-2.742;2023-09-19T15:49:14;22.70;71.30
33863;DHT22;20158;51.436;-2.742;2023-09-19T15:51:40;22.70;71.50
33863;DHT22;20158;51.436;-2.742;2023-09-19T15:54:11;22.60;71.50
33863;DHT22;20158;51.436;-2.742;2023-09-19T15:56:40;22.60;71.60
33863;DHT22;20158;51.436;-2.742;2023-09-19T15:59:12;22.50;71.50
33863;DHT22;20158;51.436;-2.742;2023-09-19T16:01:39;22.50;71.60
33863;DHT22;20158;51.436;-2.742;2023-09-19T16:04:14;22.50;71.70
33863;DHT22;20158;51.436;-2.742;2023-09-19T16:06:40;22.50;71.90
33863;DHT22;20158;51.436;-2.742;2023-09-19T16:09:10;22.40;71.80
33863;DHT22;20158;51.436;-2.742;2023-09-19T16:11:38;22.30;71.80
33863;DHT22;20158;51.436;-2.742;2023-09-19T16:14:04;22.30;72.00
33863;DHT22;20158;51.436;-2.742;2023-09-19T16:16:35;22.30;72.30